createdAt,value
2018-01-23T00:01:21.012Z,27.33
2018-01-23T00:03:48.549Z,29.93
2018-01-23T00:06:16.084Z,24.77
2018-01-23T00:08:43.721Z,27.53
2018-01-23T00:11:11.311Z,26.77
2018-01-23T00:13:38.841Z,26.03
2018-01-23T00:16:06.377Z,27.43
2018-01-23T00:18:33.982Z,27.60
2018-01-23T00:21:01.520Z,29.10
2018-01-23T00:23:29.070Z,27.87
2018-01-23T00:25:56.629Z,26.50
2018-01-23T00:28:24.181Z,28.27
2018-01-23T00:30:51.734Z,28.50
2018-01-23T00:33:19.265Z,27.20
2018-01-23T00:35:46.828Z,27.93
2018-01-23T00:38:14.358Z,28.80
2018-01-23T00:40:41.880Z,31.33
2018-01-23T00:43:09.447Z,31.30
2018-01-23T00:45:36.984Z,31.80
2018-01-23T00:48:04.552Z,32.60
2018-01-23T00:50:32.097Z,29.07
2018-01-23T00:52:59.614Z,29.57
2018-01-23T00:55:27.117Z,30.83
2018-01-23T00:57:54.704Z,30.83
2018-01-23T01:00:22.218Z,29.50
2018-01-23T01:02:49.761Z,29.67
2018-01-23T01:05:17.477Z,27.00
2018-01-23T01:07:45.066Z,30.10
2018-01-23T01:10:12.600Z,33.67
2018-01-23T01:12:40.120Z,28.23
2018-01-23T01:15:07.673Z,27.07
2018-01-23T01:17:35.378Z,28.60
2018-01-23T01:20:02.885Z,29.00
2018-01-23T01:22:30.414Z,29.90
2018-01-23T01:24:57.978Z,29.50
2018-01-23T01:27:25.486Z,27.47
2018-01-23T01:29:52.993Z,28.57
2018-01-23T01:32:20.553Z,31.80
2018-01-23T01:34:48.062Z,30.97
2018-01-23T01:37:15.561Z,31.77
2018-01-23T01:39:43.113Z,33.60
2018-01-23T01:42:10.893Z,29.50
2018-01-23T01:44:38.432Z,30.93
2018-01-23T01:47:06.065Z,28.53
2018-01-23T01:49:33.592Z,33.13
2018-01-23T01:52:01.124Z,28.07
2018-01-23T01:54:28.638Z,29.90
2018-01-23T01:56:56.149Z,32.93
2018-01-23T01:59:23.680Z,29.60
2018-01-23T02:01:51.277Z,29.57
2018-01-23T02:04:18.785Z,31.27
2018-01-23T02:06:46.315Z,27.53
2018-01-23T02:09:14.057Z,29.63
2018-01-23T02:11:41.599Z,30.37
2018-01-23T02:14:09.149Z,32.90
2018-01-23T02:16:36.684Z,30.80
2018-01-23T02:19:04.187Z,32.17
2018-01-23T02:21:31.719Z,28.20
2018-01-23T02:23:59.242Z,33.50
2018-01-23T02:26:26.860Z,29.03
2018-01-23T02:28:54.444Z,30.47
2018-01-23T02:31:22.007Z,32.93
2018-01-23T02:33:49.548Z,33.20
2018-01-23T02:36:17.054Z,30.90
2018-01-23T02:38:44.590Z,33.60
2018-01-23T02:41:12.128Z,31.50
2018-01-23T02:43:39.628Z,29.70
2018-01-23T02:46:07.181Z,34.87
2018-01-23T02:48:34.683Z,32.50
2018-01-23T02:51:02.199Z,30.50
2018-01-23T02:53:29.781Z,31.00
2018-01-23T02:55:57.366Z,33.13
2018-01-23T02:58:24.901Z,35.50
2018-01-23T03:00:52.478Z,32.87
2018-01-23T03:03:19.993Z,34.03
2018-01-23T03:05:47.609Z,34.57
2018-01-23T03:08:15.174Z,34.77
2018-01-23T03:10:42.824Z,35.33
2018-01-23T03:13:10.354Z,35.87
2018-01-23T03:15:37.908Z,35.30
2018-01-23T03:18:05.439Z,38.50
2018-01-23T03:20:33.040Z,37.77
2018-01-23T03:23:00.576Z,37.57
2018-01-23T03:25:28.138Z,36.93
2018-01-23T03:27:55.723Z,33.40
2018-01-23T03:30:23.252Z,36.93
2018-01-23T03:32:50.843Z,36.80
2018-01-23T03:35:18.357Z,35.93
2018-01-23T03:37:45.885Z,37.17
2018-01-23T03:40:13.453Z,33.83
2018-01-23T03:42:40.985Z,34.43
2018-01-23T03:45:08.818Z,40.83
2018-01-23T03:47:36.585Z,38.13
2018-01-23T03:50:04.126Z,34.90
2018-01-23T03:52:31.757Z,38.53
2018-01-23T03:54:59.262Z,36.53
2018-01-23T03:57:26.865Z,34.87
2018-01-23T03:59:54.424Z,39.70
2018-01-23T04:02:21.992Z,37.90
2018-01-23T04:04:49.525Z,37.03
2018-01-23T04:07:17.089Z,39.53
2018-01-23T04:09:44.627Z,38.00
2018-01-23T04:12:12.155Z,33.90
2018-01-23T04:14:39.699Z,37.27
2018-01-23T04:17:07.226Z,36.10
2018-01-23T04:19:34.758Z,37.43
2018-01-23T04:22:02.304Z,37.03
2018-01-23T04:24:29.833Z,35.90
2018-01-23T04:26:57.349Z,37.20
2018-01-23T04:29:24.925Z,37.03
2018-01-23T04:31:52.473Z,38.07
2018-01-23T04:34:20.001Z,38.93
2018-01-23T04:36:47.572Z,40.50
2018-01-23T04:39:15.084Z,41.00
2018-01-23T04:41:42.625Z,41.20
2018-01-23T04:44:10.150Z,38.00
2018-01-23T04:46:37.687Z,40.17
2018-01-23T04:49:05.212Z,39.30
2018-01-23T04:51:32.751Z,41.73
2018-01-23T04:54:00.267Z,40.37
2018-01-23T04:56:27.800Z,39.13
2018-01-23T04:58:55.348Z,39.80
2018-01-23T05:01:22.884Z,37.43
2018-01-23T05:03:50.393Z,36.97
2018-01-23T05:06:17.931Z,39.80
2018-01-23T05:08:45.462Z,37.10
2018-01-23T05:11:12.993Z,35.83
2018-01-23T05:13:40.556Z,39.77
2018-01-23T05:16:08.068Z,38.87
2018-01-23T05:18:35.593Z,36.90
2018-01-23T05:21:03.132Z,36.67
2018-01-23T05:23:30.731Z,33.30
2018-01-23T05:25:58.286Z,37.33
2018-01-23T05:28:25.799Z,35.73
2018-01-23T05:30:53.328Z,33.13
2018-01-23T05:33:20.872Z,37.80
2018-01-23T05:35:48.608Z,36.73
2018-01-23T05:38:16.132Z,33.27
2018-01-23T05:40:43.672Z,35.83
2018-01-23T05:43:11.296Z,37.90
2018-01-23T05:45:38.856Z,32.70
2018-01-23T05:48:06.527Z,34.30
2018-01-23T05:50:34.042Z,35.23
2018-01-23T05:53:01.554Z,30.77
2018-01-23T05:55:29.182Z,34.40
2018-01-23T05:57:56.681Z,33.23
2018-01-23T06:00:24.232Z,34.20
2018-01-23T06:02:51.742Z,32.20
2018-01-23T06:05:19.276Z,36.63
2018-01-23T06:07:46.874Z,33.63
2018-01-23T06:10:14.384Z,32.63
2018-01-23T06:12:41.914Z,34.67
2018-01-23T06:15:09.482Z,34.30
2018-01-23T06:17:36.991Z,34.60
2018-01-23T06:20:04.510Z,32.70
2018-01-23T06:22:32.037Z,34.17
2018-01-23T06:24:59.560Z,35.30
2018-01-23T06:27:27.102Z,38.33
2018-01-23T06:29:54.777Z,35.10
2018-01-23T06:32:22.351Z,31.43
2018-01-23T06:34:49.868Z,34.80
2018-01-23T06:37:17.386Z,33.97
2018-01-23T06:39:44.903Z,42.73
2018-01-23T06:42:12.461Z,44.23
2018-01-23T06:44:40.000Z,43.60
2018-01-23T06:47:07.541Z,43.10
2018-01-23T06:49:35.116Z,45.77
2018-01-23T06:52:03.276Z,45.07
2018-01-23T06:54:30.953Z,45.97
2018-01-23T06:56:58.506Z,45.70
2018-01-23T06:59:26.058Z,45.63
2018-01-23T07:01:53.605Z,46.60
2018-01-23T07:04:21.181Z,47.10
2018-01-23T07:06:48.718Z,45.83
2018-01-23T07:09:16.253Z,48.47
2018-01-23T07:11:43.818Z,44.23
2018-01-23T07:14:11.329Z,48.23
2018-01-23T07:16:39.254Z,45.93
2018-01-23T07:19:06.837Z,47.63
2018-01-23T07:21:34.353Z,44.47
2018-01-23T07:24:01.937Z,47.33
2018-01-23T07:26:29.461Z,44.87
2018-01-23T07:28:56.975Z,42.63
2018-01-23T07:31:24.500Z,46.47
2018-01-23T07:33:52.136Z,50.77
2018-01-23T07:36:19.688Z,47.37
2018-01-23T07:38:47.230Z,45.50
2018-01-23T07:41:14.788Z,44.17
2018-01-23T07:43:42.321Z,44.80
2018-01-23T07:46:09.858Z,46.80
2018-01-23T07:48:37.409Z,46.70
2018-01-23T07:51:04.924Z,47.10
2018-01-23T07:53:32.457Z,50.40
2018-01-23T07:56:00.005Z,48.47
2018-01-23T07:58:29.479Z,43.07
2018-01-23T08:01:05.371Z,48.03
2018-01-23T08:03:36.974Z,47.60
2018-01-23T08:06:05.689Z,49.87
2018-01-23T08:08:33.862Z,46.23
2018-01-23T08:13:48.202Z,51.20
2018-01-23T08:16:16.681Z,48.13
2018-01-23T08:18:45.072Z,50.33
2018-01-23T08:21:13.732Z,47.40
2018-01-23T08:23:41.912Z,47.83
2018-01-23T08:26:10.326Z,44.07
2018-01-23T08:28:38.113Z,42.57
2018-01-23T08:31:05.919Z,38.60
2018-01-23T08:33:33.645Z,37.40
2018-01-23T08:36:02.381Z,36.73
2018-01-23T08:38:30.092Z,37.57
2018-01-23T08:40:58.194Z,37.83
2018-01-23T08:43:25.741Z,38.57
2018-01-23T08:45:53.336Z,36.57
2018-01-23T08:48:20.979Z,37.60
2018-01-23T08:50:48.496Z,38.00
2018-01-23T08:53:16.097Z,37.03
2018-01-23T08:55:43.649Z,40.57
2018-01-23T08:58:11.189Z,37.40
2018-01-23T09:00:38.731Z,36.37
2018-01-23T09:03:06.271Z,40.60
2018-01-23T09:05:33.800Z,40.43
2018-01-23T09:08:01.346Z,36.30
2018-01-23T09:10:28.891Z,36.77
2018-01-23T09:12:56.418Z,38.20
2018-01-23T09:15:23.927Z,39.00
2018-01-23T09:17:51.497Z,36.90
2018-01-23T09:20:19.010Z,39.93
2018-01-23T09:22:46.546Z,37.10
2018-01-23T09:25:14.062Z,35.53
2018-01-23T09:27:41.615Z,36.60
2018-01-23T09:30:09.164Z,37.83
2018-01-23T09:32:36.738Z,34.87
2018-01-23T09:35:04.279Z,33.93
2018-01-23T09:37:31.808Z,33.40
2018-01-23T09:39:59.365Z,33.17
2018-01-23T09:42:27.080Z,34.20
2018-01-23T09:44:54.631Z,33.00
2018-01-23T09:47:22.196Z,33.90
2018-01-23T09:49:49.727Z,27.97
2018-01-23T09:52:17.332Z,30.83
2018-01-23T09:54:44.882Z,29.20
2018-01-23T09:57:12.429Z,28.70
2018-01-23T09:59:39.968Z,30.67
2018-01-23T10:02:07.547Z,32.17
2018-01-23T10:04:35.058Z,28.70
2018-01-23T10:07:02.580Z,31.27
2018-01-23T10:09:30.126Z,30.33
2018-01-23T10:11:57.630Z,31.37
2018-01-23T10:14:25.153Z,28.60
2018-01-23T10:16:52.809Z,30.07
2018-01-23T10:19:20.339Z,29.80
2018-01-23T10:21:47.879Z,25.90
2018-01-23T10:24:15.605Z,27.47
2018-01-23T10:26:43.252Z,26.20
2018-01-23T10:29:10.763Z,24.93
2018-01-23T10:31:38.415Z,24.93
2018-01-23T10:34:05.939Z,25.73
2018-01-23T10:36:33.473Z,27.97
2018-01-23T10:39:01.128Z,26.30
2018-01-23T10:41:28.680Z,27.57
2018-01-23T10:43:56.220Z,28.27
2018-01-23T10:46:23.748Z,25.10
2018-01-23T10:48:51.316Z,29.50
2018-01-23T10:51:18.824Z,26.70
2018-01-23T10:56:20.207Z,27.90
2018-01-23T10:58:47.738Z,26.30
2018-01-23T11:01:15.277Z,25.43
2018-01-23T11:03:42.789Z,27.00
2018-01-23T11:06:10.327Z,24.73
2018-01-23T11:08:37.880Z,28.10
2018-01-23T11:11:05.488Z,29.10
2018-01-23T11:13:33.025Z,26.77
2018-01-23T11:16:00.581Z,28.87
2018-01-23T11:18:28.089Z,31.30
2018-01-23T11:20:55.694Z,31.00
2018-01-23T11:23:23.245Z,30.00
2018-01-23T11:25:50.760Z,29.00
2018-01-23T11:28:18.300Z,28.00
2018-01-23T11:30:45.836Z,30.67
2018-01-23T11:33:13.700Z,29.30
2018-01-23T11:35:41.277Z,29.40
2018-01-23T11:38:08.923Z,31.00
2018-01-23T11:40:36.448Z,31.23
2018-01-23T11:43:04.273Z,30.53
2018-01-23T11:45:31.814Z,33.43
2018-01-23T11:47:59.434Z,29.27
2018-01-23T11:50:26.977Z,30.27
2018-01-23T11:52:54.513Z,30.30
2018-01-23T11:55:22.451Z,29.33
2018-01-23T11:57:50.029Z,28.27
2018-01-23T12:00:17.599Z,26.13
2018-01-23T12:02:46.058Z,29.77
2018-01-23T12:05:17.135Z,30.40
2018-01-23T12:07:46.541Z,26.83
2018-01-23T12:10:14.092Z,29.07
2018-01-23T12:12:41.645Z,28.63
2018-01-23T12:15:09.916Z,27.73
2018-01-23T12:17:37.790Z,27.40
2018-01-23T12:20:05.435Z,32.23
2018-01-23T12:22:32.969Z,34.67
2018-01-23T12:25:00.515Z,35.90
2018-01-23T12:27:28.041Z,32.60
2018-01-23T12:29:55.672Z,30.00
2018-01-23T12:32:23.235Z,30.00
2018-01-23T12:34:50.780Z,31.03
2018-01-23T12:37:19.186Z,32.07
2018-01-23T12:39:46.724Z,30.90
2018-01-23T12:42:14.257Z,34.20
2018-01-23T12:47:15.258Z,34.67
2018-01-23T12:49:42.797Z,33.97
2018-01-23T12:52:10.551Z,31.07
2018-01-23T12:54:38.574Z,32.60
2018-01-23T12:57:07.954Z,31.57
2018-01-23T12:59:35.453Z,29.60
2018-01-23T13:02:04.184Z,30.30
2018-01-23T13:04:32.470Z,33.10
2018-01-23T13:07:00.080Z,31.70
2018-01-23T13:09:27.972Z,33.10
2018-01-23T13:11:55.807Z,31.93
2018-01-23T13:14:23.368Z,31.63
2018-01-23T13:16:52.593Z,32.17
2018-01-23T13:19:21.451Z,30.23
2018-01-23T13:21:49.151Z,30.67
2018-01-23T13:24:16.700Z,32.90
2018-01-23T13:26:44.258Z,28.13
2018-01-23T13:29:11.860Z,27.30
2018-01-23T13:31:39.396Z,27.70
2018-01-23T13:34:06.981Z,28.60
2018-01-23T13:36:34.502Z,30.70
2018-01-23T13:39:02.047Z,27.03
2018-01-23T13:41:29.661Z,26.80
2018-01-23T13:43:57.213Z,26.00
2018-01-23T13:46:25.304Z,27.10
2018-01-23T13:48:52.994Z,22.87
2018-01-23T13:51:20.556Z,25.70
2018-01-23T13:53:48.478Z,24.50
2018-01-23T13:56:16.037Z,23.70
2018-01-23T13:58:43.595Z,18.10
2018-01-23T14:01:11.245Z,24.37
2018-01-23T14:03:39.133Z,26.20
2018-01-23T14:06:06.695Z,26.37
2018-01-23T14:08:34.959Z,25.50
2018-01-23T14:11:02.485Z,24.37
2018-01-23T14:13:30.994Z,25.70
2018-01-23T14:15:58.546Z,23.57
2018-01-23T14:18:26.830Z,23.73
2018-01-23T14:20:54.489Z,25.00
2018-01-23T14:23:25.593Z,25.77
2018-01-23T14:25:53.165Z,25.27
2018-01-23T14:28:22.697Z,24.43
2018-01-23T14:30:50.250Z,25.57
2018-01-23T14:33:17.772Z,27.17
2018-01-23T14:35:45.594Z,31.83
2018-01-23T14:38:13.266Z,31.10
2018-01-23T14:40:40.800Z,29.43
2018-01-23T14:43:08.374Z,30.57
2018-01-23T14:45:36.337Z,29.40
2018-01-23T14:48:05.698Z,30.00
2018-01-23T14:50:33.260Z,31.40
2018-01-23T14:53:01.129Z,29.27
2018-01-23T14:55:29.445Z,30.90
2018-01-23T14:57:57.001Z,30.90
2018-01-23T15:00:24.626Z,31.10
2018-01-23T15:02:52.528Z,30.00
2018-01-23T15:05:20.275Z,29.67
2018-01-23T15:07:47.839Z,31.70
2018-01-23T15:10:15.408Z,34.33
2018-01-23T15:12:43.372Z,28.30
2018-01-23T15:15:12.094Z,30.20
2018-01-23T15:17:39.646Z,34.87
2018-01-23T15:20:07.586Z,31.17
2018-01-23T15:22:35.116Z,33.23
2018-01-23T15:25:03.030Z,31.97
2018-01-23T15:27:30.578Z,32.27
2018-01-23T15:29:58.111Z,30.20
2018-01-23T15:32:27.090Z,32.70
2018-01-23T15:34:54.907Z,33.00
2018-01-23T15:37:22.727Z,35.87
2018-01-23T15:39:50.266Z,35.53
2018-01-23T15:42:17.965Z,32.50
2018-01-23T15:44:45.536Z,29.03
2018-01-23T15:47:13.372Z,30.93
2018-01-23T15:49:40.954Z,30.70
2018-01-23T15:54:40.269Z,31.17
2018-01-23T15:57:07.803Z,30.70
2018-01-23T15:59:36.074Z,32.13
2018-01-23T16:02:03.644Z,29.63
2018-01-23T16:04:34.754Z,28.00
2018-01-23T16:07:03.887Z,30.70
2018-01-23T16:09:31.549Z,31.17
2018-01-23T16:11:59.105Z,30.37
2018-01-23T16:14:28.442Z,32.60
2018-01-23T16:16:56.102Z,40.43
2018-01-23T16:19:25.574Z,32.00
2018-01-23T16:21:53.149Z,33.17
2018-01-23T16:24:21.693Z,40.20
2018-01-23T16:26:49.281Z,30.93
2018-01-23T16:29:17.075Z,32.90
2018-01-23T16:31:44.942Z,35.27
2018-01-23T16:34:12.698Z,32.10
2018-01-23T16:36:40.350Z,34.80
2018-01-23T16:39:08.189Z,32.70
2018-01-23T16:41:36.609Z,35.13
2018-01-23T16:44:04.193Z,32.70
2018-01-23T16:46:31.733Z,30.60
2018-01-23T16:48:59.275Z,33.60
2018-01-23T16:51:26.829Z,33.97
2018-01-23T16:53:54.615Z,37.17
2018-01-23T16:56:22.380Z,36.40
2018-01-23T16:58:49.935Z,39.03
2018-01-23T17:01:17.436Z,40.90
2018-01-23T17:03:45.897Z,31.97
2018-01-23T17:06:13.407Z,30.13
2018-01-23T17:08:41.072Z,29.23
2018-01-23T17:11:08.709Z,31.43
2018-01-23T17:13:36.252Z,33.77
2018-01-23T17:16:04.198Z,32.60
2018-01-23T17:18:32.047Z,31.50
2018-01-23T17:20:59.577Z,31.47
2018-01-23T17:23:27.129Z,34.87
2018-01-23T17:25:54.709Z,32.43
2018-01-23T17:28:23.947Z,29.90
2018-01-23T17:30:51.496Z,33.63
2018-01-23T17:33:19.110Z,33.20
2018-01-23T17:35:47.517Z,35.17
2018-01-23T17:38:15.060Z,35.20
2018-01-23T17:40:42.596Z,32.63
2018-01-23T17:43:10.162Z,33.80
2018-01-23T17:45:37.733Z,31.80
2018-01-23T17:48:05.300Z,34.13
2018-01-23T17:50:32.874Z,32.47
2018-01-23T17:53:00.413Z,34.67
2018-01-23T17:55:29.541Z,36.80
2018-01-23T17:57:57.132Z,39.87
2018-01-23T18:00:29.246Z,39.97
2018-01-23T18:02:57.091Z,36.40
2018-01-23T18:05:24.624Z,31.90
2018-01-23T18:07:52.149Z,36.43
2018-01-23T18:10:21.899Z,32.70
2018-01-23T18:12:49.782Z,31.77
2018-01-23T18:15:17.290Z,31.47
2018-01-23T18:17:44.931Z,30.20
2018-01-23T18:20:12.567Z,29.80
2018-01-23T18:22:40.110Z,32.17
2018-01-23T18:25:07.646Z,31.10
2018-01-23T18:27:38.891Z,27.87
2018-01-23T18:30:06.456Z,29.63
2018-01-23T18:32:37.588Z,29.60
2018-01-23T18:35:05.128Z,31.87
2018-01-23T18:37:32.661Z,32.90
2018-01-23T18:40:00.239Z,31.80
2018-01-23T18:42:27.797Z,31.73
2018-01-23T18:44:56.660Z,30.73
2018-01-23T18:47:25.913Z,33.60
2018-01-23T18:49:53.858Z,33.23
2018-01-23T18:52:21.398Z,35.57
2018-01-23T18:54:48.943Z,30.57
2018-01-23T18:57:16.485Z,34.10
2018-01-23T18:59:45.500Z,32.57
2018-01-23T19:02:13.037Z,39.23
2018-01-23T19:04:40.564Z,35.83
2018-01-23T19:09:39.829Z,37.87
2018-01-23T19:12:07.492Z,31.60
2018-01-23T19:14:35.800Z,34.67
2018-01-23T19:17:05.130Z,33.27
2018-01-23T19:19:33.072Z,34.30
2018-01-23T19:22:00.600Z,37.87
2018-01-23T19:24:28.131Z,37.47
2018-01-23T19:26:55.693Z,35.90
2018-01-23T19:29:23.249Z,28.53
2018-01-23T19:31:50.825Z,29.00
2018-01-23T19:34:18.835Z,29.87
2018-01-23T19:36:46.382Z,29.27
2018-01-23T19:39:14.597Z,30.60
2018-01-23T19:41:42.198Z,29.67
2018-01-23T19:44:09.962Z,26.77
2018-01-23T19:46:37.551Z,30.67
2018-01-23T19:49:05.313Z,27.10
2018-01-23T19:51:32.843Z,26.60
2018-01-23T19:54:00.747Z,26.17
2018-01-23T19:56:29.808Z,27.13
2018-01-23T19:58:57.365Z,39.27
2018-01-23T20:01:25.232Z,27.37
2018-01-23T20:03:53.605Z,26.00
2018-01-23T20:06:21.560Z,26.77
2018-01-23T20:08:52.764Z,27.83
2018-01-23T20:11:20.384Z,24.47
2018-01-23T20:13:48.042Z,26.37
2018-01-23T20:16:15.581Z,25.10
2018-01-23T20:18:43.141Z,27.30
2018-01-23T20:21:10.687Z,23.10
2018-01-23T20:23:38.308Z,27.10
2018-01-23T20:26:06.181Z,24.73
2018-01-23T20:28:33.808Z,22.93
2018-01-23T20:31:02.089Z,22.37
2018-01-23T20:33:29.868Z,22.80
2018-01-23T20:35:57.400Z,23.30
2018-01-23T20:38:25.278Z,23.47
2018-01-23T20:40:53.174Z,24.37
2018-01-23T20:43:20.811Z,23.67
2018-01-23T20:45:51.839Z,22.70
2018-01-23T20:48:19.700Z,20.20
2018-01-23T20:50:50.683Z,20.80
2018-01-23T20:53:18.229Z,19.17
2018-01-23T20:55:45.761Z,21.70
2018-01-23T20:58:13.297Z,19.87
2018-01-23T21:00:40.921Z,22.20
2018-01-23T21:03:08.476Z,22.03
2018-01-23T21:05:36.933Z,21.80
2018-01-23T21:08:04.945Z,22.03
2018-01-23T21:10:32.585Z,21.17
2018-01-23T21:13:00.145Z,19.23
2018-01-23T21:15:27.680Z,25.00
2018-01-23T21:17:55.261Z,25.83
2018-01-23T21:20:22.786Z,21.40
2018-01-23T21:22:52.307Z,19.93
2018-01-23T21:25:19.848Z,19.97
2018-01-23T21:27:48.351Z,19.40
2018-01-23T21:30:15.944Z,19.47
2018-01-23T21:32:43.477Z,18.87
2018-01-23T21:35:12.221Z,22.33
2018-01-23T21:37:39.743Z,18.80
2018-01-23T21:40:07.270Z,17.90
2018-01-23T21:42:34.800Z,17.97
2018-01-23T21:45:03.320Z,18.40
2018-01-23T21:47:31.771Z,18.03
2018-01-23T21:50:00.282Z,17.50
2018-01-23T21:52:27.823Z,17.90
2018-01-23T21:54:55.406Z,17.47
2018-01-23T21:57:22.975Z,16.70
2018-01-23T21:59:50.600Z,19.27
2018-01-23T22:02:18.109Z,17.50
2018-01-23T22:04:45.657Z,16.07
2018-01-23T22:07:14.028Z,16.53
2018-01-23T22:09:41.569Z,19.47
2018-01-23T22:12:09.123Z,17.30
2018-01-23T22:14:36.651Z,17.73
2018-01-23T22:17:05.660Z,18.27
2018-01-23T22:19:33.236Z,16.93
2018-01-23T22:22:00.818Z,16.77
2018-01-23T22:24:28.358Z,17.60
2018-01-23T22:26:56.141Z,25.20
2018-01-23T22:29:23.655Z,16.50
2018-01-23T22:31:51.486Z,14.00
2018-01-23T22:34:19.354Z,14.40
2018-01-23T22:36:50.716Z,14.03
2018-01-23T22:39:18.295Z,55.70
2018-01-23T22:41:46.122Z,18.47
2018-01-23T22:44:13.990Z,21.20
2018-01-23T22:46:42.476Z,24.77
2018-01-23T22:49:10.248Z,17.53
2018-01-23T22:51:38.108Z,19.10
2018-01-23T22:54:05.976Z,14.93
2018-01-23T22:56:33.517Z,22.60
2018-01-23T22:59:02.014Z,24.70
2018-01-23T23:01:30.937Z,13.80
2018-01-23T23:06:31.291Z,15.53
2018-01-23T23:08:58.842Z,12.50
2018-01-23T23:11:26.363Z,12.43
2018-01-23T23:13:53.926Z,13.73
2018-01-23T23:16:21.470Z,14.97
2018-01-23T23:18:49.013Z,11.77
2018-01-23T23:21:16.581Z,10.17
2018-01-23T23:23:44.132Z,10.87
2018-01-23T23:26:12.033Z,11.30
2018-01-23T23:28:39.586Z,9.70
2018-01-23T23:31:08.951Z,11.97
2018-01-23T23:33:36.754Z,9.83
2018-01-23T23:36:04.719Z,11.07
2018-01-23T23:38:32.262Z,10.40
2018-01-23T23:40:59.853Z,12.83
2018-01-23T23:43:27.405Z,11.10
2018-01-23T23:45:54.954Z,10.60
2018-01-23T23:48:22.510Z,10.10
2018-01-23T23:50:50.210Z,11.60
2018-01-23T23:53:18.146Z,10.20
2018-01-23T23:55:46.522Z,11.93
2018-01-23T23:58:14.126Z,11.30
